Orbital elements of COSMOS 970 DEB
| Launched | 20 December 1977 |
| Flight ended | – |
| Launch site | Tyuratam Missile and Space Center, Kazakhstan (Also known as Baikonur Cosmodrome) |
| Owner | Commonwealth of Independent States (former USSR) |
| NORAD ID | 65012 |
| Date fetched |
Epoch osculation |
Inc. [°] |
Ecc. | RA asc node [hr] |
Arg Peri. [°] |
Mean anom [°] |
Mean motion [rev/day] |
Abs. mag |
| Date fetched |
Epoch osculation |
Inc. [°] |
Ecc. | RA asc node [hr] |
Arg Peri. [°] |
Mean anom [°] |
Mean motion [rev/day] |
Abs. mag |
| 2026 May 03 17:57 | 2026 Apr 30 06:49:08 | 65.6309 | 0.01382 | 3.4382 | 312.4465 | 46.4990 | 13.96484 | – |
| 2026 May 02 17:57 | 2026 Apr 30 06:49:08 | 65.6309 | 0.01382 | 3.4382 | 312.4465 | 46.4990 | 13.96484 | – |
| 2026 May 01 17:56 | 2026 Apr 30 06:49:08 | 65.6309 | 0.01382 | 3.4382 | 312.4465 | 46.4990 | 13.96484 | – |
| 2026 Apr 30 17:56 | 2026 Apr 30 06:49:08 | 65.6309 | 0.01382 | 3.4382 | 312.4465 | 46.4990 | 13.96484 | – |
| 2026 Apr 29 17:57 | 2026 Apr 20 07:54:34 | 65.6290 | 0.01378 | 5.1522 | 316.7663 | 46.4990 | 13.96484 | – |
| 2026 Apr 28 17:56 | 2026 Apr 20 07:54:34 | 65.6290 | 0.01378 | 5.1522 | 316.7663 | 46.4990 | 13.96484 | – |
| 2026 Apr 27 17:58 | 2026 Apr 20 07:54:34 | 65.6290 | 0.01378 | 5.1522 | 316.7663 | 46.4990 | 13.96484 | – |
| 2026 Apr 26 17:58 | 2026 Apr 20 07:54:34 | 65.6290 | 0.01378 | 5.1522 | 316.7663 | 46.4990 | 13.96484 | – |
| 2026 Apr 25 17:58 | 2026 Apr 20 07:54:34 | 65.6290 | 0.01378 | 5.1522 | 316.7663 | 46.4990 | 13.96484 | – |
| 2026 Apr 24 17:59 | 2026 Apr 20 07:54:34 | 65.6290 | 0.01378 | 5.1522 | 316.7663 | 46.4990 | 13.96484 | – |
| 2026 Apr 23 17:57 | 2026 Apr 19 04:24:31 | 65.6289 | 0.01378 | 5.3495 | 317.2454 | 46.4990 | 13.96484 | – |
| 2026 Apr 22 17:57 | 2026 Apr 19 04:24:31 | 65.6289 | 0.01378 | 5.3495 | 317.2454 | 46.4990 | 13.96484 | – |
| 2026 Apr 21 17:57 | 2026 Apr 19 04:24:31 | 65.6289 | 0.01378 | 5.3495 | 317.2454 | 46.4990 | 13.96484 | – |
| 2026 Apr 20 17:57 | 2026 Apr 19 04:24:31 | 65.6289 | 0.01378 | 5.3495 | 317.2454 | 46.4990 | 13.96484 | – |
| 2026 Apr 19 17:58 | 2026 Apr 19 04:24:31 | 65.6289 | 0.01378 | 5.3495 | 317.2454 | 46.4990 | 13.96484 | – |
| 2026 Apr 18 17:56 | 2026 Apr 13 05:44:55 | 65.6283 | 0.01374 | 6.3729 | 319.8063 | 46.4990 | 13.96484 | – |
| 2026 Apr 16 17:57 | 2026 Apr 13 05:44:55 | 65.6283 | 0.01374 | 6.3729 | 319.8063 | 46.4990 | 13.96484 | – |
| 2026 Apr 14 17:57 | 2026 Apr 13 05:44:55 | 65.6283 | 0.01374 | 6.3729 | 319.8063 | 46.4990 | 13.96484 | – |
| 2026 Apr 13 17:57 | 2026 Apr 13 05:44:55 | 65.6283 | 0.01374 | 6.3729 | 319.8063 | 46.4990 | 13.96484 | – |
| 2026 Apr 12 17:57 | 2026 Apr 07 07:05:14 | 65.6270 | 0.01370 | 7.3964 | 322.3900 | 46.4990 | 13.96484 | – |
| 2026 Apr 11 17:57 | 2026 Apr 07 07:05:14 | 65.6270 | 0.01370 | 7.3964 | 322.3900 | 46.4990 | 13.96484 | – |
| 2026 Apr 10 17:58 | 2026 Apr 07 07:05:14 | 65.6270 | 0.01370 | 7.3964 | 322.3900 | 46.4990 | 13.96484 | – |
| 2026 Apr 09 18:01 | 2026 Apr 07 07:05:14 | 65.6270 | 0.01370 | 7.3964 | 322.3900 | 46.4990 | 13.96484 | – |
| 2026 Apr 08 17:57 | 2026 Apr 07 07:05:14 | 65.6270 | 0.01370 | 7.3964 | 322.3900 | 46.4990 | 13.96484 | – |
| 2026 Apr 07 17:57 | 2026 Apr 01 18:44:16 | 65.6253 | 0.01360 | 8.3457 | 325.0172 | 46.4990 | 13.96484 | – |
| 2026 Apr 06 17:57 | 2026 Apr 01 18:44:16 | 65.6253 | 0.01360 | 8.3457 | 325.0172 | 46.4990 | 13.96484 | – |